Time;durP1;ratioP1;P1;durP2;ratioP2;P2;SDS_P1;SDS_P2;PMS_P1;PMS_P2;Temp;Humidity;BMP_temperature;BMP_pressure;BME280_temperature;BME280_humidity;BME280_pressure;Samples;Min_cycle;Max_cycle;Signal;HPM_P1;HPM_P2
2023/08/02 00:01:02;;;;;;;5.72;2.50;;;18.70;99.90;;;;;;5064546;28;20487;-74
2023/08/02 00:03:28;;;;;;;4.93;2.55;;;18.70;99.90;;;;;;5062728;28;20040;-73
2023/08/02 00:05:55;;;;;;;7.18;2.75;;;18.70;99.90;;;;;;5067830;28;20025;-73
2023/08/02 00:08:22;;;;;;;5.22;2.80;;;18.70;99.90;;;;;;5063853;28;20044;-74
2023/08/02 00:10:47;;;;;;;11.73;2.92;;;18.70;99.90;;;;;;5068079;28;20021;-73
2023/08/02 00:13:13;;;;;;;4.13;2.45;;;18.60;99.90;;;;;;5064593;28;20036;-74
2023/08/02 00:15:39;;;;;;;4.65;2.55;;;18.50;99.90;;;;;;5067298;28;20048;-74
2023/08/02 00:18:05;;;;;;;4.05;2.33;;;18.50;99.90;;;;;;5065219;28;20035;-74
2023/08/02 00:20:31;;;;;;;5.07;2.63;;;18.50;99.90;;;;;;5059010;28;20112;-74
2023/08/02 00:22:56;;;;;;;6.63;2.90;;;18.50;99.90;;;;;;5059647;28;20578;-74
2023/08/02 00:25:22;;;;;;;4.22;2.50;;;18.40;99.90;;;;;;5067119;28;20090;-74
2023/08/02 00:27:48;;;;;;;3.45;2.78;;;18.40;99.90;;;;;;5063986;28;20057;-74
2023/08/02 00:30:14;;;;;;;5.00;2.80;;;18.40;99.90;;;;;;5058773;28;20033;-74
2023/08/02 00:32:47;;;;;;;3.55;2.58;;;18.30;99.90;;;;;;5058640;28;20037;-74
2023/08/02 00:35:13;;;;;;;3.58;2.65;;;18.30;99.90;;;;;;5065711;28;20017;-74
2023/08/02 00:37:38;;;;;;;3.35;2.42;;;18.30;99.90;;;;;;5063175;28;20035;-74
2023/08/02 00:40:04;;;;;;;4.28;3.15;;;18.30;99.90;;;;;;5064656;28;20051;-74
2023/08/02 00:42:30;;;;;;;4.10;2.90;;;18.30;99.90;;;;;;5064134;28;20029;-74
2023/08/02 00:44:56;;;;;;;4.05;2.60;;;18.30;99.90;;;;;;5064743;28;20039;-74
2023/08/02 00:47:24;;;;;;;3.63;2.50;;;18.20;99.90;;;;;;5064096;28;20488;-74
2023/08/02 00:49:49;;;;;;;4.18;2.90;;;18.20;99.90;;;;;;5064409;28;20032;-74
2023/08/02 00:52:15;;;;;;;3.53;2.40;;;18.20;99.90;;;;;;5063793;28;20037;-73
2023/08/02 00:54:41;;;;;;;3.28;2.40;;;18.20;99.90;;;;;;5064082;28;20115;-73
2023/08/02 00:57:09;;;;;;;3.33;2.40;;;18.10;99.90;;;;;;5064325;28;20021;-74
2023/08/02 00:59:40;;;;;;;4.50;2.60;;;18.10;99.90;;;;;;5063273;28;20432;-74
2023/08/02 01:02:07;;;;;;;5.10;3.55;;;18.10;99.90;;;;;;5064598;28;20028;-74
2023/08/02 01:04:36;;;;;;;3.13;2.80;;;18.10;99.90;;;;;;5061531;28;20029;-74
2023/08/02 01:07:18;;;;;;;3.80;2.70;;;18.10;99.90;;;;;;5065866;28;20032;-74
2023/08/02 01:09:49;;;;;;;5.93;3.00;;;18.00;99.90;;;;;;5062147;28;20033;-74
2023/08/02 01:12:17;;;;;;;3.97;3.00;;;17.90;99.90;;;;;;5049037;28;20028;-74
2023/08/02 01:14:49;;;;;;;8.07;3.10;;;17.90;99.90;;;;;;5061506;28;20021;-74
2023/08/02 01:17:15;;;;;;;5.80;2.92;;;17.90;99.90;;;;;;5066673;28;20012;-74
2023/08/02 01:19:42;;;;;;;6.47;2.60;;;17.80;99.90;;;;;;5062841;28;20025;-74
2023/08/02 01:22:08;;;;;;;2.85;2.53;;;17.80;99.90;;;;;;5055355;28;20037;-74
2023/08/02 01:24:35;;;;;;;3.53;2.90;;;17.80;99.90;;;;;;5063800;28;20052;-74
2023/08/02 01:27:16;;;;;;;4.45;2.42;;;17.80;99.90;;;;;;5065716;28;20062;-74
2023/08/02 01:29:46;;;;;;;5.28;2.88;;;17.80;99.90;;;;;;5065170;28;20052;-75
2023/08/02 01:32:12;;;;;;;2.83;2.40;;;17.70;99.90;;;;;;5063716;28;20040;-75
2023/08/02 01:34:39;;;;;;;3.55;2.65;;;17.80;99.90;;;;;;5065851;28;20020;-75
2023/08/02 01:37:05;;;;;;;5.43;2.88;;;17.80;99.90;;;;;;5062896;28;20066;-75
2023/08/02 01:39:30;;;;;;;2.80;2.30;;;17.70;99.90;;;;;;5065545;28;20092;-75
2023/08/02 01:41:56;;;;;;;3.80;2.80;;;17.70;99.90;;;;;;5063361;28;20033;-75
2023/08/02 01:44:22;;;;;;;5.35;3.20;;;17.70;99.90;;;;;;5065206;28;20029;-75
2023/08/02 01:46:47;;;;;;;3.67;2.53;;;17.60;99.90;;;;;;5063449;28;20033;-75
2023/08/02 01:49:13;;;;;;;3.30;2.90;;;17.60;99.90;;;;;;5068709;28;20052;-75
2023/08/02 01:51:39;;;;;;;4.50;3.22;;;17.60;99.90;;;;;;5064337;28;20037;-74
2023/08/02 01:54:04;;;;;;;3.80;2.92;;;17.60;99.90;;;;;;5064556;28;20023;-74
2023/08/02 01:56:30;;;;;;;3.92;3.30;;;17.50;99.90;;;;;;5062130;28;20032;-75
2023/08/02 01:58:56;;;;;;;3.97;2.55;;;17.50;99.90;;;;;;5061120;28;20488;-75
2023/08/02 02:01:21;;;;;;;5.68;3.05;;;17.50;99.90;;;;;;5053506;28;20025;-76
2023/08/02 02:03:47;;;;;;;4.70;3.15;;;17.50;99.90;;;;;;5065192;28;20028;-75
2023/08/02 02:06:13;;;;;;;4.82;2.92;;;17.50;99.90;;;;;;5063260;28;20051;-75
2023/08/02 02:08:38;;;;;;;4.93;3.50;;;17.50;99.90;;;;;;5051959;28;20029;-75
2023/08/02 02:11:04;;;;;;;5.43;3.15;;;17.50;99.90;;;;;;5063378;28;20029;-75
2023/08/02 02:13:30;;;;;;;4.70;2.90;;;17.50;99.90;;;;;;5065139;28;20055;-75
2023/08/02 02:15:56;;;;;;;5.53;3.17;;;17.50;99.90;;;;;;5061412;28;20029;-75
2023/08/02 02:18:22;;;;;;;3.72;2.65;;;17.50;99.90;;;;;;5065249;28;20020;-75
2023/08/02 02:20:48;;;;;;;4.20;2.83;;;17.50;99.90;;;;;;5050120;28;20033;-75
2023/08/02 02:23:13;;;;;;;5.45;3.30;;;17.50;99.90;;;;;;5062012;28;20097;-75
2023/08/02 02:25:39;;;;;;;3.40;3.10;;;17.50;99.90;;;;;;5061782;28;20037;-75
2023/08/02 02:28:05;;;;;;;4.15;2.80;;;17.50;99.90;;;;;;5064466;28;20009;-75
2023/08/02 02:30:30;;;;;;;3.45;3.00;;;17.40;99.90;;;;;;5061914;28;20096;-75
2023/08/02 02:32:56;;;;;;;4.63;3.22;;;17.40;99.90;;;;;;5062474;28;20048;-75
2023/08/02 02:35:22;;;;;;;3.92;3.10;;;17.40;99.90;;;;;;5061769;28;20049;-74
2023/08/02 02:37:48;;;;;;;4.75;2.72;;;17.30;99.90;;;;;;5064281;28;20067;-75
2023/08/02 02:40:14;;;;;;;7.50;3.20;;;17.40;99.90;;;;;;5060799;28;20029;-75
2023/08/02 02:42:40;;;;;;;4.47;2.85;;;17.40;99.90;;;;;;5063860;28;20029;-76
2023/08/02 02:45:08;;;;;;;4.70;3.10;;;17.40;99.90;;;;;;5060271;28;20032;-75
2023/08/02 02:47:33;;;;;;;4.18;2.95;;;17.40;99.90;;;;;;5064443;28;20017;-75
2023/08/02 02:49:59;;;;;;;4.03;2.78;;;17.40;99.90;;;;;;5061478;28;20171;-75
2023/08/02 02:52:25;;;;;;;4.82;2.83;;;17.40;99.90;;;;;;5063731;28;20103;-76
2023/08/02 02:54:50;;;;;;;4.22;2.72;;;17.30;99.90;;;;;;5060383;28;20483;-76
2023/08/02 02:57:17;;;;;;;4.13;2.85;;;17.40;99.90;;;;;;5062609;28;20023;-75
2023/08/02 02:59:43;;;;;;;3.72;2.65;;;17.40;99.90;;;;;;5059829;28;20074;-76
2023/08/02 03:02:09;;;;;;;4.53;3.40;;;17.40;99.90;;;;;;5064019;28;20392;-76
2023/08/02 03:04:35;;;;;;;3.97;3.15;;;17.30;99.90;;;;;;5061526;28;20044;-76
2023/08/02 03:07:00;;;;;;;3.22;2.80;;;17.30;99.90;;;;;;5064456;28;20520;-75
2023/08/02 03:09:26;;;;;;;4.38;3.20;;;17.40;99.90;;;;;;5060269;28;20052;-75
2023/08/02 03:11:52;;;;;;;3.70;2.70;;;17.40;99.90;;;;;;5064562;28;20021;-75
2023/08/02 03:14:18;;;;;;;4.50;3.45;;;17.40;99.90;;;;;;5055980;28;20055;-75
2023/08/02 03:16:44;;;;;;;4.93;2.92;;;17.40;99.90;;;;;;5062977;28;20484;-76
2023/08/02 03:19:10;;;;;;;4.03;2.75;;;17.30;99.90;;;;;;5062357;28;20051;-76
2023/08/02 03:21:36;;;;;;;5.85;3.33;;;17.40;99.90;;;;;;5052802;28;20082;-76
2023/08/02 03:24:02;;;;;;;6.07;3.22;;;17.40;99.90;;;;;;5062656;28;20524;-76
2023/08/02 03:26:28;;;;;;;3.22;2.92;;;17.30;99.90;;;;;;5065509;28;20016;-76
2023/08/02 03:28:54;;;;;;;3.78;3.13;;;17.30;99.90;;;;;;5051631;28;20096;-76
2023/08/02 03:31:19;;;;;;;3.28;2.50;;;17.30;99.90;;;;;;5063534;28;20561;-76
2023/08/02 03:33:45;;;;;;;5.43;2.83;;;17.30;99.90;;;;;;5063072;28;20400;-76
2023/08/02 03:36:11;;;;;;;5.72;2.97;;;17.30;99.90;;;;;;5065525;28;20024;-76
2023/08/02 03:38:36;;;;;;;4.35;2.92;;;17.20;99.90;;;;;;5064597;28;20485;-75
2023/08/02 03:41:02;;;;;;;6.18;3.30;;;17.20;99.90;;;;;;5069518;28;20476;-75
2023/08/02 03:43:28;;;;;;;3.75;2.97;;;17.20;99.90;;;;;;5067026;28;20017;-75
2023/08/02 03:45:53;;;;;;;4.72;2.92;;;17.20;99.90;;;;;;5069781;28;20032;-75
2023/08/02 03:48:19;;;;;;;3.38;2.88;;;17.10;99.90;;;;;;5065964;28;20109;-75
2023/08/02 03:50:45;;;;;;;3.25;2.75;;;17.00;99.90;;;;;;5069658;28;20024;-75
2023/08/02 03:53:11;;;;;;;3.95;3.00;;;17.00;99.90;;;;;;5066206;28;20112;-75
2023/08/02 03:55:36;;;;;;;4.25;2.83;;;17.00;99.90;;;;;;5067645;28;20094;-74
2023/08/02 03:58:02;;;;;;;3.30;2.75;;;17.00;99.90;;;;;;5066690;28;20460;-75
2023/08/02 04:00:27;;;;;;;4.05;2.85;;;17.00;99.90;;;;;;5068104;28;20095;-75
2023/08/02 04:02:55;;;;;;;3.67;2.50;;;16.90;99.90;;;;;;5065515;28;20024;-74
2023/08/02 04:05:21;;;;;;;4.22;3.00;;;16.90;99.90;;;;;;5067140;28;20031;-75
2023/08/02 04:07:46;;;;;;;5.03;3.00;;;16.90;99.90;;;;;;5066687;28;20758;-74
2023/08/02 04:10:12;;;;;;;4.97;3.45;;;16.90;99.90;;;;;;5068373;28;20032;-74
2023/08/02 04:12:38;;;;;;;6.45;3.00;;;16.80;99.90;;;;;;5065956;28;20920;-75
2023/08/02 04:15:04;;;;;;;6.53;3.85;;;16.80;99.90;;;;;;5066698;28;20017;-75
2023/08/02 04:17:30;;;;;;;3.53;3.22;;;16.80;99.90;;;;;;5065544;28;20032;-75
2023/08/02 04:19:55;;;;;;;3.22;2.53;;;16.70;99.90;;;;;;5065698;28;20017;-75
2023/08/02 04:22:21;;;;;;;3.67;3.00;;;16.70;99.90;;;;;;5055993;28;20060;-75
2023/08/02 04:24:47;;;;;;;4.68;3.35;;;16.70;99.90;;;;;;5065789;28;20565;-75
2023/08/02 04:27:13;;;;;;;4.45;2.65;;;16.70;99.90;;;;;;5065624;28;20124;-75
2023/08/02 04:29:39;;;;;;;3.47;2.50;;;16.70;99.90;;;;;;5067233;28;20104;-75
2023/08/02 04:32:05;;;;;;;3.70;3.22;;;16.70;99.90;;;;;;5064355;28;20116;-75
2023/08/02 04:34:30;;;;;;;4.47;2.92;;;16.70;99.90;;;;;;5066628;28;20035;-75
2023/08/02 04:36:56;;;;;;;6.32;3.78;;;16.70;99.90;;;;;;5065644;28;20052;-75
2023/08/02 04:39:22;;;;;;;6.28;3.95;;;16.60;99.90;;;;;;5067373;28;20032;-75
2023/08/02 04:41:53;;;;;;;4.28;3.00;;;16.60;99.90;;;;;;5065682;28;20063;-73
2023/08/02 04:44:19;;;;;;;5.25;2.97;;;16.70;99.90;;;;;;5066933;28;20058;-73
2023/08/02 04:46:45;;;;;;;3.75;3.15;;;16.70;99.90;;;;;;5074241;28;20016;-73
2023/08/02 04:49:10;;;;;;;3.40;2.97;;;16.70;99.90;;;;;;5076279;28;20024;-73
2023/08/02 04:51:37;;;;;;;4.32;3.17;;;16.70;99.90;;;;;;5066676;28;20031;-73
2023/08/02 04:54:04;;;;;;;3.95;3.08;;;16.70;99.90;;;;;;5074978;28;20464;-73
2023/08/02 04:56:30;;;;;;;4.63;3.63;;;16.60;99.90;;;;;;5075563;28;20024;-73
2023/08/02 04:58:56;;;;;;;5.07;2.60;;;16.50;99.90;;;;;;5076396;28;20377;-74
2023/08/02 05:01:21;;;;;;;4.45;3.33;;;16.50;99.90;;;;;;5075452;28;20046;-74
2023/08/02 05:03:47;;;;;;;5.90;3.03;;;16.60;99.90;;;;;;5073292;28;20039;-74
2023/08/02 05:06:13;;;;;;;4.28;3.33;;;16.60;99.90;;;;;;5067732;28;20112;-74
2023/08/02 05:08:38;;;;;;;3.03;2.72;;;16.50;99.90;;;;;;5072470;28;20036;-74
2023/08/02 05:11:07;;;;;;;3.95;3.05;;;16.60;99.90;;;;;;5067655;28;20077;-75
2023/08/02 05:13:34;;;;;;;4.00;3.08;;;16.60;99.90;;;;;;5064027;28;20039;-74
2023/08/02 05:16:00;;;;;;;5.40;3.22;;;16.60;99.90;;;;;;5059815;28;20024;-74
2023/08/02 05:18:26;;;;;;;4.85;3.10;;;16.70;99.90;;;;;;5060214;28;20017;-74
2023/08/02 05:20:53;;;;;;;4.35;3.03;;;16.80;99.90;;;;;;5059825;28;20021;-74
2023/08/02 05:23:18;;;;;;;4.70;3.33;;;16.90;99.90;;;;;;5059199;28;20057;-75
2023/08/02 05:25:44;;;;;;;4.13;2.97;;;16.90;99.90;;;;;;5060177;28;20021;-75
2023/08/02 05:28:10;;;;;;;4.57;3.50;;;17.00;99.90;;;;;;5059034;28;20483;-75
2023/08/02 05:30:37;;;;;;;4.00;3.38;;;17.10;99.90;;;;;;5059855;28;20032;-74
2023/08/02 05:33:03;;;;;;;5.25;3.50;;;17.20;99.90;;;;;;5058528;28;20029;-74
2023/08/02 05:35:29;;;;;;;4.65;3.20;;;17.30;99.90;;;;;;5061559;28;20477;-74
2023/08/02 05:37:56;;;;;;;4.97;3.25;;;17.40;99.90;;;;;;5073358;28;20020;-75
2023/08/02 05:40:22;;;;;;;4.35;2.97;;;17.50;99.90;;;;;;5069091;28;20096;-75
2023/08/02 05:42:48;;;;;;;6.88;3.58;;;17.60;99.90;;;;;;5068364;28;20063;-75
2023/08/02 05:45:14;;;;;;;4.93;3.25;;;17.60;99.90;;;;;;5073385;28;20530;-75
2023/08/02 05:47:40;;;;;;;4.72;3.05;;;17.70;99.90;;;;;;5075531;28;20044;-75
2023/08/02 05:50:06;;;;;;;5.03;3.13;;;17.70;99.90;;;;;;5077131;28;20047;-75
2023/08/02 05:52:32;;;;;;;3.55;3.00;;;17.80;99.90;;;;;;5078628;28;20400;-75
2023/08/02 05:54:57;;;;;;;4.72;3.03;;;17.90;99.90;;;;;;5067288;28;20021;-75
2023/08/02 05:57:23;;;;;;;4.65;3.30;;;18.00;99.90;;;;;;5071067;28;20025;-75
2023/08/02 05:59:49;;;;;;;4.45;3.15;;;18.10;99.90;;;;;;5065830;28;20088;-75
2023/08/02 06:02:15;;;;;;;3.30;2.50;;;18.20;99.90;;;;;;5070592;28;20404;-75
2023/08/02 06:04:43;;;;;;;5.38;2.92;;;18.30;99.90;;;;;;5066484;28;20029;-74
2023/08/02 06:07:09;;;;;;;4.75;3.78;;;18.40;99.90;;;;;;5071374;28;20542;-75
2023/08/02 06:09:35;;;;;;;5.50;3.40;;;18.50;99.90;;;;;;5065997;28;20032;-75
2023/08/02 06:12:01;;;;;;;3.45;2.75;;;18.60;99.90;;;;;;5057258;28;20489;-75
2023/08/02 06:14:27;;;;;;;4.90;3.40;;;18.70;99.90;;;;;;5057973;28;20029;-75
2023/08/02 06:16:52;;;;;;;3.55;2.92;;;18.90;99.90;;;;;;5057797;28;20021;-74
2023/08/02 06:19:18;;;;;;;4.13;2.60;;;19.00;99.90;;;;;;5056327;28;20025;-75
2023/08/02 06:21:44;;;;;;;4.40;2.83;;;19.10;99.90;;;;;;5057436;28;20033;-74
2023/08/02 06:24:09;;;;;;;3.83;3.10;;;19.20;99.90;;;;;;5058217;28;20048;-75
2023/08/02 06:26:35;;;;;;;3.65;2.90;;;19.40;99.90;;;;;;5061839;28;20032;-75
2023/08/02 06:29:01;;;;;;;3.67;2.80;;;19.40;99.90;;;;;;5065432;28;20108;-74
2023/08/02 06:31:27;;;;;;;3.88;3.03;;;19.70;99.90;;;;;;5070407;28;20025;-75
2023/08/02 06:33:52;;;;;;;4.78;3.78;;;19.80;99.90;;;;;;5066704;28;20031;-75
2023/08/02 06:36:18;;;;;;;3.97;3.20;;;19.90;99.90;;;;;;5070831;28;20406;-75
2023/08/02 06:38:46;;;;;;;4.93;3.65;;;20.00;99.90;;;;;;5068732;28;20499;-75
2023/08/02 06:41:12;;;;;;;3.85;2.97;;;20.20;99.90;;;;;;5071330;28;20028;-75
2023/08/02 06:43:38;;;;;;;4.45;3.15;;;20.40;99.90;;;;;;5059865;28;20021;-75
2023/08/02 06:46:04;;;;;;;4.47;3.53;;;20.50;99.90;;;;;;5048286;28;20029;-74
2023/08/02 06:48:30;;;;;;;4.82;3.65;;;20.60;99.90;;;;;;5049530;28;20033;-74
2023/08/02 06:50:55;;;;;;;7.75;4.82;;;20.80;99.90;;;;;;5049128;28;20032;-75
2023/08/02 06:53:21;;;;;;;5.35;3.85;;;20.90;99.90;;;;;;5043038;28;20107;-75
2023/08/02 06:55:47;;;;;;;6.75;3.20;;;21.00;99.90;;;;;;5071342;28;20400;-75
2023/08/02 06:58:12;;;;;;;3.70;2.63;;;21.10;99.90;;;;;;5071625;28;20013;-74
2023/08/02 07:00:40;;;;;;;3.95;2.85;;;21.20;99.90;;;;;;5073257;28;20027;-74
2023/08/02 07:03:05;;;;;;;2.83;2.40;;;21.30;99.90;;;;;;5071068;28;20809;-75
2023/08/02 07:05:31;;;;;;;3.92;2.40;;;21.30;99.90;;;;;;5049837;28;20078;-75
2023/08/02 07:07:59;;;;;;;3.72;2.55;;;21.50;99.90;;;;;;5045805;28;20016;-75
2023/08/02 07:10:25;;;;;;;7.03;2.58;;;21.60;99.90;;;;;;5057382;28;20073;-76
2023/08/02 07:12:51;;;;;;;3.15;2.60;;;21.80;99.90;;;;;;5053074;28;20488;-75
2023/08/02 07:15:18;;;;;;;3.80;2.55;;;22.00;99.90;;;;;;5055961;28;20056;-75
2023/08/02 07:17:44;;;;;;;3.13;2.53;;;22.10;99.90;;;;;;5059214;28;20009;-74
2023/08/02 07:20:11;;;;;;;4.97;2.33;;;22.20;99.90;;;;;;5058172;28;20031;-75
2023/08/02 07:22:37;;;;;;;4.45;2.30;;;22.30;99.90;;;;;;5053801;28;20045;-75
2023/08/02 07:25:03;;;;;;;4.70;2.47;;;22.30;99.90;;;;;;5058589;28;20048;-75
2023/08/02 07:27:29;;;;;;;3.47;2.08;;;22.30;99.90;;;;;;5057915;28;20484;-74
2023/08/02 07:29:56;;;;;;;4.57;2.20;;;22.30;99.90;;;;;;5061213;28;20028;-75
2023/08/02 07:32:22;;;;;;;2.70;1.90;;;22.30;99.90;;;;;;5057855;28;20028;-75
2023/08/02 07:34:48;;;;;;;2.72;2.03;;;22.50;99.90;;;;;;5058502;28;20029;-74
2023/08/02 07:37:14;;;;;;;2.47;1.90;;;22.70;99.90;;;;;;5056792;28;20021;-75
2023/08/02 07:39:40;;;;;;;3.10;1.80;;;22.80;99.90;;;;;;5057254;28;20100;-75
2023/08/02 07:42:09;;;;;;;4.57;2.00;;;22.90;99.90;;;;;;5057087;28;20032;-75
2023/08/02 07:44:35;;;;;;;2.50;1.60;;;23.00;99.90;;;;;;5059630;28;20025;-74
2023/08/02 07:47:00;;;;;;;2.47;1.65;;;22.90;99.90;;;;;;5057482;28;20028;-75
2023/08/02 07:49:26;;;;;;;2.42;1.63;;;22.90;99.90;;;;;;5062013;28;20029;-75
2023/08/02 07:51:53;;;;;;;2.83;1.50;;;23.00;99.90;;;;;;5059602;28;20047;-75
2023/08/02 07:54:19;;;;;;;3.72;1.85;;;23.10;99.90;;;;;;5057881;28;20093;-74
2023/08/02 07:56:44;;;;;;;3.50;1.70;;;23.20;99.90;;;;;;5057578;28;20468;-75
2023/08/02 07:59:10;;;;;;;2.80;1.60;;;23.10;99.90;;;;;;5061231;28;20477;-74
2023/08/02 08:01:36;;;;;;;3.08;1.52;;;23.10;99.90;;;;;;5059902;28;20031;-75
2023/08/02 08:04:01;;;;;;;2.10;1.60;;;23.10;99.90;;;;;;5057899;28;20029;-75
2023/08/02 08:06:27;;;;;;;3.20;1.63;;;23.30;99.90;;;;;;5051701;28;20033;-75
2023/08/02 08:08:52;;;;;;;3.88;1.55;;;23.30;99.90;;;;;;5057215;28;20033;-75
2023/08/02 08:11:18;;;;;;;2.75;1.65;;;23.30;99.90;;;;;;5057677;28;20040;-75
2023/08/02 08:13:44;;;;;;;2.20;1.50;;;23.30;99.90;;;;;;5057321;28;20044;-75
2023/08/02 08:16:10;;;;;;;5.07;1.77;;;23.50;99.90;;;;;;5057866;28;20025;-75
2023/08/02 08:18:36;;;;;;;3.50;1.90;;;23.60;99.90;;;;;;5058709;28;20152;-74
2023/08/02 08:21:03;;;;;;;3.38;1.98;;;23.80;99.90;;;;;;5054914;28;20048;-75
2023/08/02 08:23:30;;;;;;;5.38;2.92;;;23.80;99.90;;;;;;5056640;28;20413;-75
2023/08/02 08:25:55;;;;;;;2.65;1.58;;;23.80;99.90;;;;;;5062859;28;20025;-75
2023/08/02 08:28:22;;;;;;;2.60;1.30;;;23.80;99.90;;;;;;5056812;28;20063;-75
2023/08/02 08:30:47;;;;;;;2.25;1.73;;;24.00;99.90;;;;;;5057481;28;20033;-74
2023/08/02 08:33:13;;;;;;;2.42;1.60;;;24.00;99.90;;;;;;5058989;28;20048;-74
2023/08/02 08:35:39;;;;;;;2.45;1.60;;;24.00;99.90;;;;;;5057904;28;20037;-76
2023/08/02 08:38:04;;;;;;;4.13;1.75;;;24.20;99.90;;;;;;5059765;28;20033;-75
2023/08/02 08:40:32;;;;;;;3.90;1.85;;;24.20;99.90;;;;;;5060992;28;20029;-74
2023/08/02 08:42:58;;;;;;;3.17;1.95;;;24.20;99.90;;;;;;5059523;28;20071;-75
2023/08/02 08:45:25;;;;;;;3.38;2.22;;;24.20;99.90;;;;;;5058792;28;20029;-75
2023/08/02 08:47:52;;;;;;;2.55;1.90;;;24.20;99.90;;;;;;5058004;28;20029;-75
2023/08/02 08:50:20;;;;;;;3.03;1.83;;;24.30;99.90;;;;;;5058526;28;20029;-75
2023/08/02 08:52:47;;;;;;;3.90;1.80;;;24.40;99.90;;;;;;5060131;28;20041;-73
2023/08/02 08:55:15;;;;;;;3.35;2.17;;;24.60;99.90;;;;;;5060358;28;20052;-74
2023/08/02 08:57:41;;;;;;;2.88;1.67;;;24.80;99.90;;;;;;5055764;28;20028;-74
2023/08/02 09:00:09;;;;;;;3.85;2.30;;;25.10;99.90;;;;;;5059929;28;20092;-77
2023/08/02 09:02:39;;;;;;;4.07;2.05;;;25.10;99.90;;;;;;5053284;28;20044;-76
2023/08/02 09:05:06;;;;;;;;;;;24.80;99.90;;;;;;5059952;28;20029;-75
2023/08/02 09:07:31;;;;;;;3.38;2.20;;;24.80;99.90;;;;;;5053817;28;20058;-77
2023/08/02 09:09:57;;;;;;;3.78;2.28;;;24.70;99.90;;;;;;5059838;28;20052;-76
2023/08/02 09:12:27;;;;;;;6.18;2.30;;;25.00;99.90;;;;;;5058457;28;20025;-76
2023/08/02 09:15:07;;;;;;;5.45;2.97;;;25.20;99.90;;;;;;5054451;28;20017;-76
2023/08/02 09:17:50;;;;;;;5.47;2.45;;;25.40;99.90;;;;;;5057222;28;20012;-75
2023/08/02 09:20:18;;;;;;;5.10;2.45;;;25.40;99.90;;;;;;5057335;28;20476;-73
2023/08/02 09:22:44;;;;;;;5.70;2.20;;;25.50;99.90;;;;;;5054715;28;20128;-74
2023/08/02 09:25:21;;;;;;;4.93;2.40;;;25.60;99.90;;;;;;5057611;28;20032;-73
2023/08/02 09:27:48;;;;;;;5.28;2.72;;;25.50;99.90;;;;;;5055720;28;20404;-74
2023/08/02 09:30:34;;;;;;;8.65;2.55;;;25.60;99.90;;;;;;5055426;28;20080;-73
2023/08/02 09:33:01;;;;;;;3.17;2.30;;;25.50;99.90;;;;;;5062968;28;20039;-73
2023/08/02 09:35:27;;;;;;;3.92;2.38;;;25.40;99.90;;;;;;5059024;28;20032;-73
2023/08/02 09:37:53;;;;;;;4.55;2.33;;;25.30;99.90;;;;;;5058836;28;20043;-72
2023/08/02 09:40:19;;;;;;;21.50;2.70;;;25.40;99.90;;;;;;5056023;28;20473;-74
2023/08/02 09:42:45;;;;;;;6.15;2.30;;;25.60;99.90;;;;;;5058477;28;20017;-73
2023/08/02 09:45:11;;;;;;;3.15;2.10;;;25.70;99.90;;;;;;5059156;28;20099;-73
2023/08/02 09:47:37;;;;;;;3.63;2.28;;;25.70;99.90;;;;;;5056113;28;20079;-73
2023/08/02 09:50:03;;;;;;;3.50;2.55;;;25.80;99.90;;;;;;5063256;28;20040;-73
2023/08/02 09:52:29;;;;;;;2.83;1.70;;;25.80;99.90;;;;;;5047117;28;20036;-73
2023/08/02 09:54:55;;;;;;;5.65;3.05;;;26.10;99.90;;;;;;5055240;28;20025;-73
2023/08/02 09:57:25;;;;;;;3.58;2.30;;;26.30;99.90;;;;;;5058329;28;20464;-72
2023/08/02 09:59:52;;;;;;;5.55;2.55;;;26.20;99.90;;;;;;5054080;28;20084;-73
2023/08/02 10:02:22;;;;;;;4.72;2.53;;;26.10;99.90;;;;;;5057473;28;20516;-73
2023/08/02 10:04:49;;;;;;;5.70;2.97;;;26.00;99.90;;;;;;5059013;28;20029;-75
2023/08/02 10:07:16;;;;;;;6.68;2.95;;;26.00;99.90;;;;;;5055160;28;20112;-74
2023/08/02 10:09:42;;;;;;;3.78;2.72;;;26.00;99.90;;;;;;5058400;28;20025;-73
2023/08/02 10:12:11;;;;;;;4.15;2.83;;;26.10;99.90;;;;;;5055432;28;20025;-74
2023/08/02 10:14:37;;;;;;;5.78;2.75;;;26.20;99.90;;;;;;5059953;28;20036;-74
2023/08/02 10:17:03;;;;;;;3.85;2.72;;;26.30;99.90;;;;;;5056875;28;20021;-73
2023/08/02 10:19:30;;;;;;;3.95;2.53;;;26.40;99.90;;;;;;5053804;28;20029;-73
2023/08/02 10:22:06;;;;;;;5.97;2.78;;;26.40;99.90;;;;;;5039331;28;20096;-76
2023/08/02 10:24:32;;;;;;;4.97;2.63;;;26.10;99.90;;;;;;5053905;28;20052;-73
2023/08/02 10:27:02;;;;;;;5.05;2.50;;;26.10;99.90;;;;;;5054811;28;20078;-73
2023/08/02 10:29:29;;;;;;;5.10;2.92;;;26.20;99.90;;;;;;5055271;28;20029;-72
2023/08/02 10:31:55;;;;;;;5.82;2.90;;;26.20;99.90;;;;;;5055280;28;20088;-73
2023/08/02 10:34:36;;;;;;;5.72;2.72;;;26.40;99.90;;;;;;5054957;28;20025;-74
2023/08/02 10:37:03;;;;;;;3.80;2.70;;;26.40;99.90;;;;;;5049174;28;20052;-74
2023/08/02 10:39:51;;;;;;;4.53;2.72;;;26.50;99.90;;;;;;5056330;28;20402;-72
2023/08/02 10:42:17;;;;;;;5.70;2.60;;;26.40;99.90;;;;;;5053396;28;20037;-73
2023/08/02 10:44:55;;;;;;;4.00;2.70;;;26.40;99.90;;;;;;5055121;28;20534;-74
2023/08/02 10:47:27;;;;;;;4.93;2.95;;;26.50;99.90;;;;;;5053967;28;20060;-73
2023/08/02 10:49:54;;;;;;;4.72;3.15;;;26.70;99.90;;;;;;5055226;28;20025;-74
2023/08/02 10:52:33;;;;;;;4.30;2.45;;;26.80;99.90;;;;;;5057646;28;20037;-75
2023/08/02 10:55:12;;;;;;;5.18;2.70;;;26.90;99.90;;;;;;5059008;28;20067;-73
2023/08/02 10:58:05;;;;;;;3.70;2.42;;;27.00;99.90;;;;;;5058388;28;20455;-72
2023/08/02 11:00:32;;;;;;;3.70;2.28;;;26.90;99.90;;;;;;5050442;28;20024;-74
2023/08/02 11:02:58;;;;;;;4.18;2.50;;;26.90;99.90;;;;;;5068357;28;20049;-73
2023/08/02 11:05:44;;;;;;;4.90;2.70;;;26.80;99.90;;;;;;5073946;28;20408;-72
2023/08/02 11:08:11;;;;;;;5.78;2.75;;;26.80;99.90;;;;;;5053126;28;20037;-73
2023/08/02 11:10:54;;;;;;;4.78;2.88;;;27.10;99.90;;;;;;5055516;28;20024;-74
2023/08/02 11:13:21;;;;;;;4.90;2.42;;;27.50;99.90;;;;;;5054454;28;20059;-74
2023/08/02 11:15:47;;;;;;;5.25;2.20;;;27.70;99.90;;;;;;5068387;28;20021;-75
2023/08/02 11:18:12;;;;;;;4.30;2.13;;;27.70;99.90;;;;;;5071864;28;20088;-74
2023/08/02 11:20:38;;;;;;;5.43;2.70;;;27.60;99.90;;;;;;5065764;28;20520;-73
2023/08/02 11:23:24;;;;;;;6.10;2.42;;;27.70;99.90;;;;;;5073472;28;20046;-75
2023/08/02 11:25:50;;;;;;;5.18;2.60;;;27.90;99.90;;;;;;5071042;28;20040;-74
2023/08/02 11:28:16;;;;;;;6.78;2.53;;;28.00;99.90;;;;;;5072156;28;20028;-74
2023/08/02 11:30:42;;;;;;;4.57;2.53;;;27.90;99.90;;;;;;5069954;28;20099;-75
2023/08/02 11:33:08;;;;;;;4.50;2.33;;;27.80;99.90;;;;;;5063850;28;20028;-75
2023/08/02 11:35:33;;;;;;;8.88;2.20;;;27.90;99.90;;;;;;5058775;28;20017;-75
2023/08/02 11:38:00;;;;;;;5.65;2.65;;;28.00;99.90;;;;;;5061106;28;20056;-75
2023/08/02 11:40:37;;;;;;;5.20;2.55;;;28.10;99.90;;;;;;5058855;28;20021;-74
2023/08/02 11:43:03;;;;;;;5.05;2.70;;;28.10;99.90;;;;;;5063167;28;20135;-74
2023/08/02 11:45:30;;;;;;;4.47;2.28;;;28.30;99.90;;;;;;5059698;28;20052;-74
2023/08/02 11:47:56;;;;;;;4.63;2.58;;;28.30;99.90;;;;;;5064187;28;20039;-74
2023/08/02 11:50:26;;;;;;;7.70;2.17;;;28.20;99.90;;;;;;5059846;28;20504;-74
2023/08/02 11:52:52;;;;;;;5.30;2.42;;;27.90;99.90;;;;;;5046959;28;20055;-75
2023/08/02 11:55:21;;;;;;;4.55;1.88;;;27.60;99.90;;;;;;5059483;28;20025;-74
2023/08/02 11:57:48;;;;;;;4.07;2.42;;;27.50;99.90;;;;;;5063508;28;20016;-74
2023/08/02 12:00:14;;;;;;;5.03;2.72;;;27.40;99.90;;;;;;5061479;28;20029;-73
2023/08/02 12:02:40;;;;;;;3.13;2.13;;;27.40;99.90;;;;;;5074936;28;20131;-73
2023/08/02 12:05:08;;;;;;;8.73;2.60;;;27.50;99.90;;;;;;5077650;28;20059;-74
2023/08/02 12:07:35;;;;;;;4.57;2.30;;;27.50;99.90;;;;;;5070402;28;20103;-75
2023/08/02 12:10:04;;;;;;;5.55;2.20;;;27.60;99.90;;;;;;5075591;28;20042;-73
2023/08/02 12:12:38;;;;;;;4.50;2.45;;;27.70;99.90;;;;;;5077775;28;20028;-74
2023/08/02 12:15:11;;;;;;;5.90;2.75;;;27.70;99.90;;;;;;5076362;28;20044;-72
2023/08/02 12:17:37;;;;;;;4.90;2.63;;;27.80;99.90;;;;;;5074869;28;20025;-74
2023/08/02 12:20:05;;;;;;;5.63;2.72;;;27.90;99.90;;;;;;5071326;28;20024;-76
2023/08/02 12:22:46;;;;;;;5.35;2.25;;;28.00;99.90;;;;;;5051028;28;20140;-75
2023/08/02 12:25:11;;;;;;;3.10;2.17;;;28.10;99.90;;;;;;5070989;28;20119;-72
2023/08/02 12:27:37;;;;;;;3.40;2.10;;;28.20;99.90;;;;;;5069675;28;20106;-71
2023/08/02 12:30:12;;;;;;;7.68;2.13;;;28.30;99.90;;;;;;5072020;28;20050;-74
2023/08/02 12:32:37;;;;;;;5.20;2.15;;;28.50;99.90;;;;;;5069704;28;20119;-74
2023/08/02 12:35:07;;;;;;;4.38;1.88;;;28.50;99.90;;;;;;5070721;28;20048;-74
2023/08/02 12:37:34;;;;;;;5.97;2.35;;;28.40;99.90;;;;;;5059731;28;20099;-74
2023/08/02 12:39:59;;;;;;;2.95;1.63;;;28.70;99.90;;;;;;5061520;28;20044;-74
2023/08/02 12:42:25;;;;;;;4.80;2.30;;;28.70;99.90;;;;;;5058583;28;20033;-73
2023/08/02 12:44:51;;;;;;;5.95;2.92;;;28.80;99.90;;;;;;5056750;28;20036;-74
2023/08/02 12:47:16;;;;;;;5.45;2.25;;;29.00;99.90;;;;;;5051876;28;20108;-73